Time;durP1;ratioP1;P1;durP2;ratioP2;P2;SDS_P1;SDS_P2;PMS_P1;PMS_P2;Temp;Humidity;BMP_temperature;BMP_pressure;BME280_temperature;BME280_humidity;BME280_pressure;Samples;Min_cycle;Max_cycle;Signal;HPM_P1;HPM_P2
2022/07/15 00:00:04;;;;;;;0.00;0.00;;;22.90;63.70;;;;;;3957317;29;20059;-65
2022/07/15 00:02:27;;;;;;;0.10;0.10;;;22.90;63.70;;;;;;3957306;29;20065;-65
2022/07/15 00:04:50;;;;;;;0.00;0.00;;;22.90;63.70;;;;;;3957658;29;20467;-65
2022/07/15 00:07:12;;;;;;;0.08;0.08;;;22.90;63.80;;;;;;3943661;29;20400;-65
2022/07/15 00:12:12;;;;;;;0.00;0.00;;;22.90;64.00;;;;;;3953147;29;20055;-65
2022/07/15 00:14:34;;;;;;;0.00;0.00;;;22.90;64.00;;;;;;3957106;29;20051;-65
2022/07/15 00:16:56;;;;;;;0.00;0.00;;;22.90;64.00;;;;;;3957423;29;20073;-65
2022/07/15 00:19:19;;;;;;;0.08;0.08;;;22.90;64.10;;;;;;3957288;29;20415;-65
2022/07/15 00:21:42;;;;;;;0.00;0.00;;;22.90;64.10;;;;;;3957197;29;20073;-66
2022/07/15 00:24:04;;;;;;;0.13;0.13;;;22.90;65.00;;;;;;3957073;29;20055;-65
2022/07/15 00:26:26;;;;;;;0.22;0.22;;;22.90;64.20;;;;;;3957068;29;20057;-65
2022/07/15 00:28:49;;;;;;;0.00;0.00;;;22.90;64.30;;;;;;3956730;29;20134;-66
2022/07/15 00:31:11;;;;;;;0.00;0.00;;;22.90;64.30;;;;;;3969196;29;20415;-66
2022/07/15 00:33:34;;;;;;;0.20;0.20;;;22.90;64.30;;;;;;3957410;29;20545;-65
2022/07/15 00:35:57;;;;;;;0.00;0.00;;;22.90;64.40;;;;;;3957406;29;20067;-65
2022/07/15 00:38:20;;;;;;;0.00;0.00;;;22.90;64.50;;;;;;3957298;29;20097;-65
2022/07/15 00:40:42;;;;;;;0.03;0.03;;;22.90;64.50;;;;;;3968988;29;20055;-65
2022/07/15 00:43:04;;;;;;;0.00;0.00;;;22.90;64.50;;;;;;3953798;29;20113;-65
2022/07/15 00:45:27;;;;;;;0.00;0.00;;;22.90;64.50;;;;;;3930097;29;20067;-65
2022/07/15 00:47:51;;;;;;;0.00;0.00;;;22.90;64.50;;;;;;3942950;29;20055;-65
2022/07/15 00:50:15;;;;;;;0.00;0.00;;;22.90;64.50;;;;;;3943334;29;20063;-65
2022/07/15 00:52:41;;;;;;;0.00;0.00;;;22.90;64.60;;;;;;3956781;29;20064;-65
2022/07/15 00:55:06;;;;;;;0.00;0.00;;;22.90;64.60;;;;;;3943660;29;20066;-64
2022/07/15 00:57:29;;;;;;;0.00;0.00;;;22.90;64.60;;;;;;3956545;29;20075;-65
2022/07/15 00:59:52;;;;;;;0.30;0.30;;;22.90;64.70;;;;;;3943270;29;20215;-65
2022/07/15 01:02:15;;;;;;;0.00;0.00;;;22.90;65.60;;;;;;3943337;29;21632;-65
2022/07/15 01:04:38;;;;;;;0.00;0.00;;;22.90;64.70;;;;;;3950041;29;20065;-65
2022/07/15 01:07:01;;;;;;;0.00;0.00;;;22.90;64.80;;;;;;3943251;29;20064;-65
2022/07/15 01:09:24;;;;;;;0.00;0.00;;;22.90;64.80;;;;;;3956892;29;20087;-64
2022/07/15 01:11:47;;;;;;;0.00;0.00;;;22.80;64.80;;;;;;3957168;29;20458;-64
2022/07/15 01:14:09;;;;;;;0.00;0.00;;;22.80;64.90;;;;;;3930573;29;20115;-65
2022/07/15 01:16:31;;;;;;;0.00;0.00;;;22.90;65.00;;;;;;3956991;29;20086;-64
2022/07/15 01:18:54;;;;;;;0.00;0.00;;;22.80;64.90;;;;;;3942897;29;20060;-64
2022/07/15 01:21:21;;;;;;;0.00;0.00;;;22.80;65.00;;;;;;3943191;29;20063;-65
2022/07/15 01:23:46;;;;;;;0.00;0.00;;;22.80;65.00;;;;;;3943062;29;20058;-64
2022/07/15 01:26:27;;;;;;;0.00;0.00;;;22.80;65.10;;;;;;3956786;29;20059;-65
2022/07/15 01:28:49;;;;;;;0.00;0.00;;;22.80;65.10;;;;;;3954893;29;20065;-64
2022/07/15 01:31:12;;;;;;;0.00;0.00;;;22.80;65.20;;;;;;3968491;29;20078;-64
2022/07/15 01:33:38;;;;;;;0.00;0.00;;;22.80;65.30;;;;;;3930225;29;20126;-64
2022/07/15 01:36:01;;;;;;;0.05;0.05;;;22.80;65.30;;;;;;3956625;29;20865;-64
2022/07/15 01:38:26;;;;;;;0.00;0.00;;;22.80;65.30;;;;;;3942589;29;20062;-64
2022/07/15 01:40:53;;;;;;;0.00;0.00;;;22.80;65.30;;;;;;3942412;29;20496;-66
2022/07/15 01:43:15;;;;;;;0.00;0.00;;;22.80;65.30;;;;;;3942968;29;20083;-66
2022/07/15 01:45:37;;;;;;;0.00;0.00;;;22.70;65.20;;;;;;3942599;29;20056;-63
2022/07/15 01:48:00;;;;;;;0.22;0.22;;;22.70;65.20;;;;;;3968216;29;20121;-66
2022/07/15 01:50:39;;;;;;;0.00;0.00;;;22.70;65.20;;;;;;3942581;29;20511;-66
2022/07/15 01:53:06;;;;;;;0.00;0.00;;;22.70;65.20;;;;;;3942933;29;20182;-65
2022/07/15 01:55:30;;;;;;;10.65;1.85;;;22.70;65.20;;;;;;3969361;29;20112;-66
2022/07/15 01:57:53;;;;;;;0.00;0.00;;;22.70;65.30;;;;;;3942423;29;20078;-65
2022/07/15 02:00:17;;;;;;;0.00;0.00;;;22.70;65.40;;;;;;3942107;29;20105;-66
2022/07/15 02:02:41;;;;;;;0.00;0.00;;;22.70;65.40;;;;;;3967799;29;20050;-66
2022/07/15 02:05:03;;;;;;;0.00;0.00;;;22.70;65.40;;;;;;3956276;29;20066;-66
2022/07/15 02:07:25;;;;;;;0.00;0.00;;;22.70;65.50;;;;;;3967704;29;20061;-65
2022/07/15 02:09:47;;;;;;;0.00;0.00;;;22.70;65.50;;;;;;3942233;29;20054;-65
2022/07/15 02:12:11;;;;;;;0.00;0.00;;;22.70;65.50;;;;;;3942104;29;20055;-66
2022/07/15 02:14:37;;;;;;;0.00;0.00;;;22.70;65.50;;;;;;3930072;29;20445;-66
2022/07/15 02:16:59;;;;;;;0.20;0.20;;;22.70;65.50;;;;;;3942387;29;20558;-66
2022/07/15 02:19:28;;;;;;;0.00;0.00;;;22.70;65.50;;;;;;3929740;29;20764;-65
2022/07/15 02:21:50;;;;;;;0.00;0.00;;;22.70;65.50;;;;;;3955853;29;20108;-65
2022/07/15 02:24:13;;;;;;;0.00;0.00;;;22.70;65.50;;;;;;3968225;29;20415;-65
2022/07/15 02:26:36;;;;;;;0.00;0.00;;;22.60;65.50;;;;;;3967782;29;20546;-66
2022/07/15 02:28:59;;;;;;;0.00;0.00;;;22.60;65.50;;;;;;3956342;29;20116;-66
2022/07/15 02:31:23;;;;;;;0.00;0.00;;;22.60;65.50;;;;;;3942262;29;20059;-65
2022/07/15 02:33:45;;;;;;;0.00;0.00;;;22.60;65.60;;;;;;3942648;29;20116;-65
2022/07/15 02:36:08;;;;;;;0.00;0.00;;;22.60;65.60;;;;;;3967244;29;20061;-65
2022/07/15 02:38:30;;;;;;;0.00;0.00;;;22.60;65.60;;;;;;3942660;29;20085;-65
2022/07/15 02:40:52;;;;;;;0.00;0.00;;;22.60;65.60;;;;;;3955696;29;20050;-65
2022/07/15 02:43:15;;;;;;;0.00;0.00;;;22.60;65.60;;;;;;3942366;29;20159;-65
2022/07/15 02:45:40;;;;;;;0.00;0.00;;;22.60;65.70;;;;;;3941977;29;20055;-66
2022/07/15 02:48:03;;;;;;;0.00;0.00;;;22.60;65.60;;;;;;3967836;29;20061;-65
2022/07/15 02:50:29;;;;;;;0.20;0.20;;;22.60;65.70;;;;;;3941986;29;20051;-67
2022/07/15 02:52:51;;;;;;;0.08;0.08;;;22.60;65.70;;;;;;3942467;29;20062;-65
2022/07/15 02:55:15;;;;;;;0.00;0.00;;;22.60;65.70;;;;;;3929792;29;20514;-65
2022/07/15 02:57:38;;;;;;;0.00;0.00;;;22.50;65.70;;;;;;3942027;30;20056;-65
2022/07/15 02:59:59;;;;;;;0.00;0.00;;;22.50;65.70;;;;;;3955468;29;20055;-65
2022/07/15 03:02:23;;;;;;;0.00;0.00;;;22.50;65.70;;;;;;3967499;29;20055;-66
2022/07/15 03:04:47;;;;;;;6.72;0.88;;;22.50;65.70;;;;;;3941754;29;20059;-66
2022/07/15 03:07:09;;;;;;;0.00;0.00;;;22.50;65.70;;;;;;3942499;30;20147;-66
2022/07/15 03:09:31;;;;;;;0.00;0.00;;;22.50;66.50;;;;;;3955590;29;20061;-65
2022/07/15 03:11:53;;;;;;;0.00;0.00;;;22.50;65.70;;;;;;3943786;29;20067;-66
2022/07/15 03:14:15;;;;;;;0.00;0.00;;;22.50;65.70;;;;;;3958184;29;20088;-66
2022/07/15 03:16:41;;;;;;;0.00;0.00;;;22.50;65.60;;;;;;3944837;29;20113;-66
2022/07/15 03:19:05;;;;;;;0.00;0.00;;;22.50;65.70;;;;;;3944571;29;20058;-66
2022/07/15 03:21:27;;;;;;;0.30;0.30;;;22.50;65.70;;;;;;3969713;29;20055;-66
2022/07/15 03:23:49;;;;;;;0.00;0.00;;;22.50;65.60;;;;;;3944824;29;20062;-65
2022/07/15 03:26:11;;;;;;;0.00;0.00;;;22.50;66.60;;;;;;3970201;29;20534;-65
2022/07/15 03:28:35;;;;;;;0.00;0.00;;;22.50;65.60;;;;;;3958306;29;20070;-65
2022/07/15 03:30:58;;;;;;;0.00;0.00;;;22.50;65.60;;;;;;3969991;29;20477;-65
2022/07/15 03:33:20;;;;;;;0.00;0.00;;;22.50;65.70;;;;;;3944410;29;20092;-65
2022/07/15 03:35:45;;;;;;;0.00;0.00;;;22.40;65.60;;;;;;3944755;29;20066;-65
2022/07/15 03:38:07;;;;;;;0.13;0.13;;;22.40;65.60;;;;;;3944487;29;20589;-64
2022/07/15 03:40:31;;;;;;;0.00;0.00;;;22.40;65.60;;;;;;3944897;29;20129;-65
2022/07/15 03:42:53;;;;;;;0.00;0.00;;;22.40;65.60;;;;;;3944414;29;20126;-65
2022/07/15 03:45:15;;;;;;;0.00;0.00;;;22.40;65.60;;;;;;3944368;29;20075;-66
2022/07/15 03:47:37;;;;;;;0.00;0.00;;;22.40;65.60;;;;;;3958025;29;20142;-66
2022/07/15 03:50:02;;;;;;;0.00;0.00;;;22.40;65.60;;;;;;3957981;29;20094;-65
2022/07/15 03:52:27;;;;;;;0.00;0.00;;;22.40;65.60;;;;;;3943939;29;20054;-64
2022/07/15 03:54:48;;;;;;;0.00;0.00;;;22.40;65.60;;;;;;3969835;29;20081;-65
2022/07/15 03:57:11;;;;;;;0.00;0.00;;;22.40;65.60;;;;;;3944049;29;20077;-65
2022/07/15 03:59:34;;;;;;;2.42;0.95;;;22.40;65.60;;;;;;3944641;29;20164;-65
2022/07/15 04:01:55;;;;;;;0.00;0.00;;;22.40;65.70;;;;;;3944203;29;20134;-65
2022/07/15 04:04:18;;;;;;;0.00;0.00;;;22.40;65.70;;;;;;3957859;29;20066;-65
2022/07/15 04:06:40;;;;;;;0.00;0.00;;;22.40;66.60;;;;;;3957801;29;20077;-65
2022/07/15 04:09:03;;;;;;;0.00;0.00;;;22.40;65.70;;;;;;3944442;29;20128;-65
2022/07/15 04:11:25;;;;;;;0.00;0.00;;;22.40;65.70;;;;;;3944034;29;20056;-65
2022/07/15 04:13:48;;;;;;;0.00;0.00;;;22.40;66.70;;;;;;3943968;29;20143;-65
2022/07/15 04:16:11;;;;;;;0.00;0.00;;;22.40;65.70;;;;;;3957898;29;20561;-65
2022/07/15 04:18:33;;;;;;;0.00;0.00;;;22.40;65.70;;;;;;3944130;29;20174;-65
2022/07/15 04:20:56;;;;;;;0.00;0.00;;;22.30;65.60;;;;;;3969134;29;20538;-65
2022/07/15 04:23:18;;;;;;;0.00;0.00;;;22.30;65.60;;;;;;3943389;29;20111;-60
2022/07/15 04:25:42;;;;;;;0.00;0.00;;;22.30;65.60;;;;;;3943799;29;20166;-62
2022/07/15 04:28:05;;;;;;;0.10;0.10;;;22.30;65.90;;;;;;3969204;29;20181;-62
2022/07/15 04:30:28;;;;;;;0.00;0.00;;;22.30;65.90;;;;;;3943733;29;20063;-62
2022/07/15 04:32:50;;;;;;;0.00;0.00;;;22.30;65.40;;;;;;3950840;29;20584;-62
2022/07/15 04:35:14;;;;;;;0.00;0.00;;;22.30;65.60;;;;;;3951008;30;20117;-62
2022/07/15 04:37:37;;;;;;;0.00;0.00;;;22.30;65.50;;;;;;3952447;29;20100;-62
2022/07/15 04:39:59;;;;;;;0.00;0.00;;;22.30;65.50;;;;;;3970892;29;20190;-62
2022/07/15 04:42:23;;;;;;;0.00;0.00;;;22.30;65.60;;;;;;3945773;30;20055;-62
2022/07/15 04:44:46;;;;;;;0.00;0.00;;;22.30;65.70;;;;;;3957227;29;20503;-62
2022/07/15 04:47:11;;;;;;;0.00;0.00;;;22.20;65.60;;;;;;3943071;30;20067;-63
2022/07/15 04:52:17;;;;;;;0.10;0.10;;;22.30;65.90;;;;;;3971702;29;20050;-62
2022/07/15 04:54:42;;;;;;;0.00;0.00;;;22.20;65.80;;;;;;3957931;29;20067;-62
2022/07/15 04:57:05;;;;;;;0.00;0.00;;;22.20;65.80;;;;;;3971949;29;20115;-62
2022/07/15 04:59:28;;;;;;;0.00;0.00;;;22.20;65.80;;;;;;3971846;29;20122;-62
2022/07/15 05:01:50;;;;;;;0.00;0.00;;;22.20;65.80;;;;;;3958366;29;20051;-61
2022/07/15 05:04:21;;;;;;;0.00;0.00;;;22.20;65.70;;;;;;3957925;29;20071;-61
2022/07/15 05:06:44;;;;;;;0.00;0.00;;;22.20;65.70;;;;;;3955065;30;20484;-61
2022/07/15 05:09:07;;;;;;;0.00;0.00;;;22.20;66.50;;;;;;3956653;29;20081;-62
2022/07/15 05:11:29;;;;;;;0.00;0.00;;;22.20;65.60;;;;;;3943301;30;20198;-61
2022/07/15 05:13:53;;;;;;;0.00;0.00;;;22.20;65.60;;;;;;3942959;30;20485;-61
2022/07/15 05:16:17;;;;;;;0.00;0.00;;;22.20;66.50;;;;;;3942981;30;20116;-61
2022/07/15 05:18:40;;;;;;;0.00;0.00;;;22.20;65.60;;;;;;3942912;29;20059;-62
2022/07/15 05:21:02;;;;;;;0.00;0.00;;;22.20;65.50;;;;;;3943417;30;20067;-61
2022/07/15 05:23:30;;;;;;;0.00;0.00;;;22.20;65.50;;;;;;3942835;30;20605;-62
2022/07/15 05:25:56;;;;;;;0.00;0.00;;;22.20;65.50;;;;;;3938142;30;20055;-62
2022/07/15 05:28:18;;;;;;;0.00;0.00;;;22.20;65.50;;;;;;3943009;30;20072;-62
2022/07/15 05:30:43;;;;;;;0.00;0.00;;;22.20;65.60;;;;;;3942869;30;20143;-61
2022/07/15 05:33:09;;;;;;;0.00;0.00;;;22.20;65.50;;;;;;3968188;29;20165;-62
2022/07/15 05:35:31;;;;;;;0.00;0.00;;;22.20;65.50;;;;;;3942890;30;20067;-61
2022/07/15 05:37:53;;;;;;;0.00;0.00;;;22.20;65.50;;;;;;3942870;30;20249;-63
2022/07/15 05:40:23;;;;;;;0.00;0.00;;;22.20;65.40;;;;;;3970350;29;20058;-63
2022/07/15 05:42:47;;;;;;;0.00;0.00;;;22.20;65.50;;;;;;3942467;30;20157;-64
2022/07/15 05:45:12;;;;;;;0.00;0.00;;;22.20;65.40;;;;;;3943024;30;20055;-63
2022/07/15 05:47:39;;;;;;;0.00;0.00;;;22.20;65.30;;;;;;3942533;30;20079;-63
2022/07/15 05:50:04;;;;;;;0.00;0.00;;;22.20;65.20;;;;;;3956719;30;20361;-63
2022/07/15 05:52:26;;;;;;;0.00;0.00;;;22.20;64.90;;;;;;3942819;30;20112;-63
2022/07/15 05:54:48;;;;;;;1.30;0.73;;;22.20;64.80;;;;;;3942808;30;20079;-63
2022/07/15 05:57:11;;;;;;;0.00;0.00;;;22.20;64.40;;;;;;3956081;29;20059;-64
2022/07/15 05:59:33;;;;;;;0.00;0.00;;;22.30;65.10;;;;;;3956424;30;20048;-63
2022/07/15 06:01:56;;;;;;;0.00;0.00;;;22.30;64.00;;;;;;3938463;30;20146;-68
2022/07/15 06:04:18;;;;;;;0.00;0.00;;;22.30;63.90;;;;;;3942327;30;20052;-67
2022/07/15 06:06:43;;;;;;;0.00;0.00;;;22.30;63.80;;;;;;3942753;30;20055;-68
2022/07/15 06:09:05;;;;;;;0.00;0.00;;;22.20;63.70;;;;;;3941978;30;20131;-67
2022/07/15 06:11:27;;;;;;;0.00;0.00;;;22.30;63.70;;;;;;3942247;30;20078;-68
2022/07/15 06:13:51;;;;;;;0.00;0.00;;;22.20;63.60;;;;;;3941694;30;20141;-68
2022/07/15 06:16:13;;;;;;;0.00;0.00;;;22.20;63.70;;;;;;3942295;30;20421;-68
2022/07/15 06:18:38;;;;;;;0.00;0.00;;;22.20;63.80;;;;;;3941800;30;20121;-67
2022/07/15 06:21:01;;;;;;;0.00;0.00;;;22.20;63.70;;;;;;3942509;30;20208;-68
2022/07/15 06:23:25;;;;;;;0.00;0.00;;;22.20;63.70;;;;;;3941633;30;20496;-67
2022/07/15 06:25:47;;;;;;;0.00;0.00;;;22.20;63.60;;;;;;3942229;30;20108;-67
2022/07/15 06:28:09;;;;;;;0.00;0.00;;;22.20;63.10;;;;;;3955334;30;20066;-67
2022/07/15 06:30:31;;;;;;;0.00;0.00;;;22.20;63.60;;;;;;3955569;30;20063;-67
2022/07/15 06:32:53;;;;;;;0.00;0.00;;;22.20;63.50;;;;;;3941960;30;20512;-67
2022/07/15 06:35:15;;;;;;;0.00;0.00;;;22.20;63.60;;;;;;3941842;30;20112;-68
2022/07/15 06:37:37;;;;;;;0.45;0.45;;;22.20;63.50;;;;;;3960446;29;20572;-67
2022/07/15 06:40:02;;;;;;;0.00;0.00;;;22.20;63.60;;;;;;3954646;29;21059;-68
2022/07/15 06:42:26;;;;;;;0.03;0.03;;;22.20;63.30;;;;;;3954728;29;20512;-67
2022/07/15 06:44:57;;;;;;;;;;;22.10;63.20;;;;;;3941580;29;20182;-68
2022/07/15 06:48:17;;;;;;;0.00;0.00;;;22.10;63.00;;;;;;3970611;29;19925;-68
2022/07/15 06:50:40;;;;;;;0.00;0.00;;;22.10;63.10;;;;;;3956963;29;20116;-68
2022/07/15 06:53:03;;;;;;;0.00;0.00;;;22.10;63.20;;;;;;3969493;29;20133;-67
2022/07/15 06:55:26;;;;;;;0.00;0.00;;;22.10;63.20;;;;;;3970961;29;20463;-68
2022/07/15 06:57:49;;;;;;;0.00;0.00;;;22.10;63.30;;;;;;3956915;29;20099;-68
2022/07/15 07:00:14;;;;;;;0.00;0.00;;;22.20;63.40;;;;;;3969934;29;20073;-68
2022/07/15 07:02:37;;;;;;;0.28;0.28;;;22.20;63.30;;;;;;3956711;29;20098;-68
2022/07/15 07:05:02;;;;;;;0.00;0.00;;;22.30;63.20;;;;;;3970730;29;20090;-68
2022/07/15 07:07:25;;;;;;;0.00;0.00;;;22.30;63.10;;;;;;3956882;29;20631;-67
2022/07/15 07:09:47;;;;;;;0.00;0.00;;;22.30;63.00;;;;;;3970570;29;20054;-68
2022/07/15 07:12:11;;;;;;;0.00;0.00;;;22.40;62.90;;;;;;3951282;29;20580;-67
2022/07/15 07:14:33;;;;;;;0.00;0.00;;;22.40;62.80;;;;;;3970811;29;20050;-68
2022/07/15 07:16:55;;;;;;;0.03;0.03;;;22.30;62.70;;;;;;3970761;29;20552;-67
2022/07/15 07:19:17;;;;;;;0.00;0.00;;;22.40;62.80;;;;;;3970192;29;20047;-68
2022/07/15 07:21:39;;;;;;;0.00;0.00;;;22.30;62.80;;;;;;3970373;29;20054;-66
2022/07/15 07:24:01;;;;;;;0.90;0.65;;;22.30;62.80;;;;;;3955517;29;20059;-67
2022/07/15 07:26:23;;;;;;;0.00;0.00;;;22.30;62.90;;;;;;3968000;29;20066;-67
2022/07/15 07:28:48;;;;;;;0.00;0.00;;;22.30;63.00;;;;;;3970474;29;20602;-67
2022/07/15 07:31:12;;;;;;;0.00;0.00;;;22.30;63.10;;;;;;3964469;29;20344;-66
2022/07/15 07:33:34;;;;;;;0.00;0.00;;;22.20;63.10;;;;;;3942493;29;20535;-67
2022/07/15 07:35:56;;;;;;;0.00;0.00;;;22.20;63.30;;;;;;3956028;29;20171;-66
2022/07/15 07:38:19;;;;;;;0.00;0.00;;;22.20;63.50;;;;;;3970973;29;20054;-67
2022/07/15 07:40:41;;;;;;;0.00;0.00;;;22.20;63.70;;;;;;3969908;29;20055;-67
2022/07/15 07:43:03;;;;;;;0.00;0.00;;;22.20;63.70;;;;;;3970552;29;20085;-67
2022/07/15 07:45:28;;;;;;;0.00;0.00;;;22.30;63.90;;;;;;3969966;29;20055;-66
2022/07/15 07:47:50;;;;;;;0.00;0.00;;;22.30;64.70;;;;;;3970967;29;20119;-67
2022/07/15 07:50:12;;;;;;;0.00;0.00;;;22.40;63.90;;;;;;3969868;29;20050;-66
2022/07/15 07:52:34;;;;;;;0.00;0.00;;;22.40;63.70;;;;;;3970521;29;20058;-67
2022/07/15 07:54:57;;;;;;;0.00;0.00;;;22.40;63.50;;;;;;3969983;29;20070;-66
2022/07/15 07:57:19;;;;;;;0.75;0.65;;;22.50;63.10;;;;;;3968014;29;20275;-67
2022/07/15 07:59:41;;;;;;;0.00;0.00;;;22.50;62.90;;;;;;3969728;29;20457;-66
2022/07/15 08:02:05;;;;;;;0.00;0.00;;;22.50;62.90;;;;;;3964144;29;20420;-67
2022/07/15 08:04:27;;;;;;;0.00;0.00;;;22.50;62.80;;;;;;3970241;29;20070;-67
2022/07/15 08:07:49;;;;;;;0.00;0.00;;;22.50;62.90;;;;;;3970478;29;20066;-67
2022/07/15 08:10:15;;;;;;;0.00;0.00;;;22.50;62.80;;;;;;3969417;29;20050;-66
2022/07/15 08:12:37;;;;;;;0.00;0.00;;;22.50;62.70;;;;;;3970627;29;20055;-67
2022/07/15 08:14:59;;;;;;;0.00;0.00;;;22.50;63.80;;;;;;3959379;29;20146;-66
2022/07/15 08:17:23;;;;;;;0.90;0.32;;;22.40;63.00;;;;;;3962313;29;21042;-66
2022/07/15 08:19:45;;;;;;;0.00;0.00;;;22.40;63.00;;;;;;3969816;29;20195;-66
2022/07/15 08:22:07;;;;;;;0.00;0.00;;;22.40;63.10;;;;;;3969598;29;20066;-67
2022/07/15 08:24:35;;;;;;;0.03;0.03;;;22.40;63.30;;;;;;3969537;29;20058;-67
2022/07/15 08:26:58;;;;;;;0.00;0.00;;;22.40;63.10;;;;;;3969851;29;20059;-66
2022/07/15 08:29:20;;;;;;;0.00;0.00;;;22.40;63.10;;;;;;3969841;29;20059;-66
2022/07/15 08:31:42;;;;;;;0.00;0.00;;;22.40;62.80;;;;;;3969165;29;20135;-67
2022/07/15 08:34:07;;;;;;;0.00;0.00;;;22.50;62.50;;;;;;3969411;29;20058;-66
2022/07/15 08:36:30;;;;;;;0.00;0.00;;;22.40;62.30;;;;;;3969783;29;20058;-66
2022/07/15 08:38:52;;;;;;;0.22;0.22;;;22.40;62.50;;;;;;3969473;29;20054;-66
2022/07/15 08:41:15;;;;;;;0.00;0.00;;;22.50;62.50;;;;;;3965610;29;20078;-68
2022/07/15 08:43:37;;;;;;;0.00;0.00;;;22.50;62.30;;;;;;3969209;29;20419;-67
2022/07/15 08:45:59;;;;;;;0.00;0.00;;;22.50;61.00;;;;;;3969108;29;21092;-67
2022/07/15 08:48:29;;;;;;;0.00;0.00;;;22.50;61.50;;;;;;3969412;29;20050;-67
2022/07/15 08:50:54;;;;;;;0.00;0.00;;;22.50;61.20;;;;;;3969974;29;22725;-69
2022/07/15 08:53:16;;;;;;;0.00;0.00;;;22.60;61.50;;;;;;3965467;29;20419;-66
2022/07/15 08:55:38;;;;;;;0.00;0.00;;;22.60;61.50;;;;;;3957295;29;20407;-67
2022/07/15 08:58:01;;;;;;;0.00;0.00;;;22.60;61.60;;;;;;3964129;29;20419;-66
2022/07/15 09:00:28;;;;;;;0.00;0.00;;;22.60;61.40;;;;;;3960790;29;20061;-66
2022/07/15 09:02:50;;;;;;;0.00;0.00;;;22.60;61.20;;;;;;3956097;29;20097;-67
2022/07/15 09:05:22;;;;;;;0.00;0.00;;;22.60;60.90;;;;;;3969535;29;20059;-67
2022/07/15 09:07:54;;;;;;;0.00;0.00;;;22.60;61.00;;;;;;3968779;29;20050;-67
2022/07/15 09:10:16;;;;;;;3.60;1.45;;;22.70;61.60;;;;;;3968961;29;20407;-67
2022/07/15 09:12:42;;;;;;;0.00;0.00;;;22.70;60.90;;;;;;3956687;29;20081;-67
2022/07/15 09:15:04;;;;;;;0.00;0.00;;;22.70;61.40;;;;;;3969266;29;20479;-67
2022/07/15 09:17:26;;;;;;;0.00;0.00;;;22.70;61.50;;;;;;3968872;29;20062;-66
2022/07/15 09:20:00;;;;;;;0.00;0.00;;;22.80;61.00;;;;;;3969557;29;20143;-67
2022/07/15 09:22:23;;;;;;;0.00;0.00;;;22.90;60.50;;;;;;3968684;29;20059;-67
2022/07/15 09:24:46;;;;;;;0.00;0.00;;;22.90;60.10;;;;;;3969375;29;20156;-67
2022/07/15 09:27:29;;;;;;;0.00;0.00;;;22.90;60.60;;;;;;3968286;29;20820;-67
2022/07/15 09:36:01;;;;;;;0.00;0.00;;;23.00;59.10;;;;;;3957390;29;20519;-67
2022/07/15 09:38:00;;;;;;;0.00;0.00;;;23.10;59.70;;;;;;3968719;29;20124;-67
2022/07/15 09:40:24;;;;;;;0.00;0.00;;;23.10;58.80;;;;;;3968263;29;20141;-67
2022/07/15 09:43:03;;;;;;;0.00;0.00;;;23.10;58.80;;;;;;3968506;29;20062;-67
2022/07/15 09:45:25;;;;;;;0.00;0.00;;;23.20;58.90;;;;;;3968566;29;20065;-67
2022/07/15 09:48:06;;;;;;;0.00;0.00;;;23.20;58.80;;;;;;3968459;29;20112;-67
2022/07/15 09:50:34;;;;;;;0.00;0.00;;;23.20;58.70;;;;;;3969020;29;20093;-67
2022/07/15 09:52:58;;;;;;;0.00;0.00;;;23.10;58.90;;;;;;3965475;29;20059;-67
2022/07/15 09:55:20;;;;;;;0.00;0.00;;;23.10;59.00;;;;;;3954633;29;20116;-67
2022/07/15 09:57:43;;;;;;;0.00;0.00;;;23.10;59.00;;;;;;3953777;29;20066;-66
2022/07/15 10:00:07;;;;;;;0.00;0.00;;;23.10;58.90;;;;;;3968788;29;20054;-67
2022/07/15 10:02:29;;;;;;;0.08;0.08;;;23.10;59.00;;;;;;3968121;29;20138;-66
2022/07/15 10:04:51;;;;;;;0.00;0.00;;;23.10;59.00;;;;;;3968670;29;20127;-67
2022/07/15 10:07:16;;;;;;;0.00;0.00;;;23.00;58.90;;;;;;3967736;29;20581;-67
2022/07/15 10:09:55;;;;;;;0.00;0.00;;;23.00;58.90;;;;;;3957904;29;20146;-67
2022/07/15 10:12:26;;;;;;;1.20;1.10;;;23.00;58.80;;;;;;3968759;29;20051;-67
2022/07/15 10:15:02;;;;;;;0.50;0.47;;;23.00;58.80;;;;;;3967662;29;20134;-67
2022/07/15 10:17:44;;;;;;;0.75;0.75;;;23.00;58.70;;;;;;3968380;29;20057;-67
2022/07/15 10:20:41;;;;;;;0.55;0.55;;;23.00;58.70;;;;;;3955364;29;20556;-67
2022/07/15 10:23:12;;;;;;;0.20;0.20;;;23.00;58.70;;;;;;3961628;29;20055;-67
2022/07/15 10:26:00;;;;;;;0.00;0.00;;;23.00;58.60;;;;;;3968491;29;20061;-66
2022/07/15 10:28:32;;;;;;;0.10;0.10;;;23.00;58.60;;;;;;3968571;29;20073;-66
2022/07/15 10:31:17;;;;;;;0.17;0.17;;;23.00;58.40;;;;;;3968811;29;20170;-66
2022/07/15 10:33:40;;;;;;;0.20;0.20;;;23.00;58.40;;;;;;3968829;29;20177;-67
2022/07/15 10:36:05;;;;;;;0.10;0.10;;;23.10;58.50;;;;;;3967864;29;20072;-66
2022/07/15 10:38:31;;;;;;;0.10;0.10;;;23.10;58.50;;;;;;3964585;29;20070;-67
2022/07/15 10:41:16;;;;;;;0.20;0.20;;;23.10;58.40;;;;;;3968290;29;20063;-67
2022/07/15 10:43:44;;;;;;;0.00;0.00;;;23.10;58.10;;;;;;3968315;29;20054;-67
2022/07/15 10:46:21;;;;;;;0.10;0.10;;;23.10;58.10;;;;;;3967743;29;20138;-66
2022/07/15 10:48:44;;;;;;;0.00;0.00;;;23.10;58.10;;;;;;3967922;29;20061;-66
2022/07/15 10:51:06;;;;;;;0.00;0.00;;;23.10;58.10;;;;;;3948266;29;20062;-66
2022/07/15 10:53:29;;;;;;;0.55;0.55;;;23.10;58.10;;;;;;3968184;29;20507;-66
2022/07/15 10:55:51;;;;;;;1.23;1.13;;;23.10;58.20;;;;;;3967899;29;20058;-66
2022/07/15 10:58:16;;;;;;;0.43;0.43;;;23.10;58.20;;;;;;3967938;29;20465;-66
2022/07/15 11:00:38;;;;;;;0.10;0.10;;;23.10;58.20;;;;;;3967688;29;20584;-66
2022/07/15 11:03:08;;;;;;;0.00;0.00;;;23.10;58.20;;;;;;3954327;29;20142;-66
2022/07/15 11:05:31;;;;;;;0.00;0.00;;;23.10;58.80;;;;;;3966893;29;20061;-66
2022/07/15 11:07:53;;;;;;;0.00;0.00;;;23.10;58.10;;;;;;3967404;29;20069;-66
2022/07/15 11:10:16;;;;;;;1.10;1.10;;;23.10;58.10;;;;;;3968802;29;20572;-66
2022/07/15 11:13:00;;;;;;;0.65;0.32;;;23.10;58.20;;;;;;3967999;29;20051;-66
2022/07/15 11:15:24;;;;;;;0.28;0.28;;;23.10;58.30;;;;;;3966070;29;20051;-66
2022/07/15 11:17:47;;;;;;;0.35;0.35;;;23.10;58.50;;;;;;3953833;29;20140;-66
2022/07/15 11:20:17;;;;;;;0.10;0.10;;;23.10;58.60;;;;;;3968633;29;20598;-66
2022/07/15 11:22:43;;;;;;;0.98;0.98;;;23.00;58.60;;;;;;3945881;29;20055;-66
2022/07/15 11:25:06;;;;;;;0.80;0.80;;;23.00;58.70;;;;;;3968004;29;20440;-67
2022/07/15 11:27:28;;;;;;;0.35;0.35;;;22.90;59.00;;;;;;3967224;29;20143;-66
2022/07/15 11:29:52;;;;;;;0.03;0.03;;;22.90;59.50;;;;;;3968409;29;20161;-65
2022/07/15 11:32:16;;;;;;;0.85;0.65;;;22.90;59.70;;;;;;3968091;29;20050;-65
2022/07/15 11:34:43;;;;;;;0.00;0.00;;;22.80;59.70;;;;;;3969402;29;20146;-65
2022/07/15 11:37:07;;;;;;;0.15;0.15;;;22.90;59.90;;;;;;3969535;29;20046;-66
2022/07/15 11:39:29;;;;;;;0.32;0.32;;;22.80;59.80;;;;;;3969348;29;20117;-67
2022/07/15 11:44:32;;;;;;;;;;;22.90;61.00;;;;;;3969117;29;20058;-67
2022/07/15 11:46:55;;;;;;;0.00;0.00;;;22.80;60.10;;;;;;3970203;29;19932;-66
2022/07/15 11:49:27;;;;;;;0.20;0.20;;;22.90;60.00;;;;;;3969968;29;20532;-66
2022/07/15 11:51:50;;;;;;;0.17;0.17;;;22.80;59.60;;;;;;3970116;29;20058;-66
2022/07/15 11:54:15;;;;;;;0.00;0.00;;;22.80;59.50;;;;;;3956018;29;20059;-66
2022/07/15 11:56:37;;;;;;;0.00;0.00;;;22.80;60.20;;;;;;3969507;29;20084;-66
2022/07/15 11:58:59;;;;;;;9.07;3.08;;;22.90;59.40;;;;;;3969786;29;20538;-65
2022/07/15 12:01:24;;;;;;;0.00;0.00;;;22.90;59.30;;;;;;3970533;29;20399;-66
2022/07/15 12:03:47;;;;;;;0.00;0.00;;;22.80;59.40;;;;;;3965122;29;20400;-66
2022/07/15 12:06:13;;;;;;;0.28;0.28;;;22.90;59.40;;;;;;3965800;29;20506;-67
2022/07/15 12:08:41;;;;;;;0.40;0.40;;;22.90;59.50;;;;;;3970123;29;20059;-67
2022/07/15 12:11:17;;;;;;;0.10;0.10;;;22.90;59.20;;;;;;3969981;29;20153;-66
2022/07/15 12:13:44;;;;;;;0.00;0.00;;;22.90;59.10;;;;;;3970173;29;20166;-66
2022/07/15 12:16:07;;;;;;;0.00;0.00;;;22.90;59.30;;;;;;3970063;29;20055;-66
2022/07/15 12:18:33;;;;;;;0.08;0.08;;;22.90;59.10;;;;;;3968951;29;20057;-66
2022/07/15 12:20:56;;;;;;;0.15;0.15;;;22.90;59.40;;;;;;3970341;29;20135;-66
2022/07/15 12:23:19;;;;;;;0.35;0.35;;;22.80;59.50;;;;;;3969831;29;20562;-65
2022/07/15 12:25:40;;;;;;;0.75;0.40;;;22.80;59.60;;;;;;3966548;29;20057;-67
2022/07/15 12:28:04;;;;;;;1.45;0.43;;;22.80;59.80;;;;;;3969090;29;20479;-66
2022/07/15 12:30:32;;;;;;;0.43;0.43;;;22.70;59.80;;;;;;3969831;29;20062;-67
2022/07/15 12:33:14;;;;;;;0.00;0.00;;;22.80;60.00;;;;;;3969431;29;20130;-67
2022/07/15 12:35:36;;;;;;;0.00;0.00;;;22.70;60.10;;;;;;3969491;29;20111;-67
2022/07/15 12:37:58;;;;;;;0.00;0.00;;;22.70;60.30;;;;;;3965535;29;20062;-66
2022/07/15 12:40:24;;;;;;;0.00;0.00;;;22.70;61.40;;;;;;3954979;29;20047;-66
2022/07/15 12:42:48;;;;;;;1.55;0.75;;;22.70;60.80;;;;;;3963169;29;20506;-65
2022/07/15 12:45:14;;;;;;;0.00;0.00;;;22.70;61.00;;;;;;3966265;29;20138;-66
2022/07/15 12:47:36;;;;;;;0.08;0.08;;;22.70;61.20;;;;;;3969131;29;20428;-65